sensor_id;sensor_type;location;lat;lon;timestamp;P1;durP1;ratioP1;P2;durP2;ratioP2
77146;SDS011;66121;52.584;9.694;2023-04-08T00:02:18;7.13;;;4.22;;
77146;SDS011;66121;52.584;9.694;2023-04-08T00:04:43;9.63;;;4.60;;
77146;SDS011;66121;52.584;9.694;2023-04-08T00:07:09;8.00;;;4.10;;
77146;SDS011;66121;52.584;9.694;2023-04-08T00:09:34;8.33;;;4.60;;
77146;SDS011;66121;52.584;9.694;2023-04-08T00:11:59;7.53;;;4.13;;
77146;SDS011;66121;52.584;9.694;2023-04-08T00:14:25;8.95;;;4.93;;
77146;SDS011;66121;52.584;9.694;2023-04-08T00:16:50;6.67;;;4.37;;
77146;SDS011;66121;52.584;9.694;2023-04-08T00:19:15;8.83;;;4.53;;
77146;SDS011;66121;52.584;9.694;2023-04-08T00:21:41;6.00;;;3.80;;
77146;SDS011;66121;52.584;9.694;2023-04-08T00:24:06;7.37;;;4.20;;
77146;SDS011;66121;52.584;9.694;2023-04-08T00:26:31;8.13;;;3.50;;
77146;SDS011;66121;52.584;9.694;2023-04-08T00:28:57;6.87;;;3.93;;
77146;SDS011;66121;52.584;9.694;2023-04-08T00:31:22;5.90;;;3.88;;
77146;SDS011;66121;52.584;9.694;2023-04-08T00:33:47;6.72;;;4.00;;
77146;SDS011;66121;52.584;9.694;2023-04-08T00:36:13;7.88;;;4.07;;
77146;SDS011;66121;52.584;9.694;2023-04-08T00:38:38;9.23;;;4.30;;
77146;SDS011;66121;52.584;9.694;2023-04-08T00:41:03;8.47;;;4.50;;
77146;SDS011;66121;52.584;9.694;2023-04-08T00:43:29;9.65;;;4.30;;
77146;SDS011;66121;52.584;9.694;2023-04-08T00:45:54;11.13;;;5.50;;
77146;SDS011;66121;52.584;9.694;2023-04-08T00:48:20;8.52;;;4.28;;
77146;SDS011;66121;52.584;9.694;2023-04-08T00:50:45;8.27;;;4.32;;
77146;SDS011;66121;52.584;9.694;2023-04-08T00:53:12;9.10;;;4.90;;
77146;SDS011;66121;52.584;9.694;2023-04-08T00:55:41;9.68;;;4.25;;
77146;SDS011;66121;52.584;9.694;2023-04-08T00:58:06;9.90;;;5.15;;
77146;SDS011;66121;52.584;9.694;2023-04-08T01:00:32;8.32;;;5.10;;
77146;SDS011;66121;52.584;9.694;2023-04-08T01:06:12;7.65;;;4.60;;
77146;SDS011;66121;52.584;9.694;2023-04-08T01:08:46;9.65;;;5.07;;
77146;SDS011;66121;52.584;9.694;2023-04-08T01:11:13;10.25;;;5.70;;
77146;SDS011;66121;52.584;9.694;2023-04-08T01:13:40;9.65;;;5.60;;
77146;SDS011;66121;52.584;9.694;2023-04-08T01:16:09;13.15;;;6.40;;
77146;SDS011;66121;52.584;9.694;2023-04-08T01:18:38;10.30;;;5.65;;
77146;SDS011;66121;52.584;9.694;2023-04-08T01:21:05;10.25;;;5.20;;
77146;SDS011;66121;52.584;9.694;2023-04-08T01:23:35;10.63;;;5.72;;
77146;SDS011;66121;52.584;9.694;2023-04-08T01:26:09;12.68;;;6.25;;
77146;SDS011;66121;52.584;9.694;2023-04-08T01:28:37;12.00;;;6.60;;
77146;SDS011;66121;52.584;9.694;2023-04-08T01:31:04;14.07;;;6.15;;
77146;SDS011;66121;52.584;9.694;2023-04-08T01:33:31;14.70;;;6.47;;
77146;SDS011;66121;52.584;9.694;2023-04-08T01:35:57;12.43;;;5.95;;
77146;SDS011;66121;52.584;9.694;2023-04-08T01:38:24;12.32;;;6.85;;
77146;SDS011;66121;52.584;9.694;2023-04-08T01:40:51;14.60;;;7.10;;
77146;SDS011;66121;52.584;9.694;2023-04-08T01:43:18;13.60;;;5.80;;
77146;SDS011;66121;52.584;9.694;2023-04-08T01:45:46;13.82;;;6.43;;
77146;SDS011;66121;52.584;9.694;2023-04-08T01:48:12;11.27;;;6.40;;
77146;SDS011;66121;52.584;9.694;2023-04-08T01:50:42;13.60;;;7.30;;
77146;SDS011;66121;52.584;9.694;2023-04-08T01:53:09;14.93;;;7.18;;
77146;SDS011;66121;52.584;9.694;2023-04-08T01:55:36;16.75;;;7.32;;
77146;SDS011;66121;52.584;9.694;2023-04-08T01:58:03;17.55;;;8.18;;
77146;SDS011;66121;52.584;9.694;2023-04-08T02:00:31;14.70;;;7.82;;
77146;SDS011;66121;52.584;9.694;2023-04-08T02:02:58;14.45;;;7.63;;
77146;SDS011;66121;52.584;9.694;2023-04-08T02:05:26;14.20;;;7.63;;
77146;SDS011;66121;52.584;9.694;2023-04-08T02:07:51;17.10;;;7.60;;
77146;SDS011;66121;52.584;9.694;2023-04-08T02:10:16;15.10;;;7.40;;
77146;SDS011;66121;52.584;9.694;2023-04-08T02:12:42;16.85;;;8.07;;
77146;SDS011;66121;52.584;9.694;2023-04-08T02:15:09;14.27;;;7.50;;
77146;SDS011;66121;52.584;9.694;2023-04-08T02:17:40;17.08;;;9.23;;
77146;SDS011;66121;52.584;9.694;2023-04-08T02:20:18;16.75;;;8.00;;
77146;SDS011;66121;52.584;9.694;2023-04-08T02:25:15;14.57;;;7.50;;
77146;SDS011;66121;52.584;9.694;2023-04-08T02:27:42;16.70;;;7.72;;
77146;SDS011;66121;52.584;9.694;2023-04-08T02:30:10;15.57;;;7.93;;
77146;SDS011;66121;52.584;9.694;2023-04-08T02:32:37;17.55;;;8.30;;
77146;SDS011;66121;52.584;9.694;2023-04-08T02:35:03;15.25;;;8.07;;
77146;SDS011;66121;52.584;9.694;2023-04-08T02:37:32;17.70;;;8.57;;
77146;SDS011;66121;52.584;9.694;2023-04-08T02:39:58;16.52;;;8.35;;
77146;SDS011;66121;52.584;9.694;2023-04-08T02:42:23;16.05;;;8.80;;
77146;SDS011;66121;52.584;9.694;2023-04-08T02:44:49;18.63;;;8.43;;
77146;SDS011;66121;52.584;9.694;2023-04-08T02:47:15;15.80;;;8.00;;
77146;SDS011;66121;52.584;9.694;2023-04-08T02:49:40;14.10;;;7.30;;
77146;SDS011;66121;52.584;9.694;2023-04-08T02:52:06;15.13;;;7.40;;
77146;SDS011;66121;52.584;9.694;2023-04-08T02:54:31;13.83;;;7.70;;
77146;SDS011;66121;52.584;9.694;2023-04-08T02:56:56;15.63;;;7.63;;
77146;SDS011;66121;52.584;9.694;2023-04-08T02:59:21;13.60;;;7.47;;
77146;SDS011;66121;52.584;9.694;2023-04-08T03:01:47;13.93;;;7.30;;
77146;SDS011;66121;52.584;9.694;2023-04-08T03:04:12;18.07;;;8.60;;
77146;SDS011;66121;52.584;9.694;2023-04-08T03:06:37;17.23;;;8.30;;
77146;SDS011;66121;52.584;9.694;2023-04-08T03:09:03;21.57;;;8.43;;
77146;SDS011;66121;52.584;9.694;2023-04-08T03:11:29;15.60;;;8.60;;
77146;SDS011;66121;52.584;9.694;2023-04-08T03:13:55;15.70;;;8.02;;
77146;SDS011;66121;52.584;9.694;2023-04-08T03:16:20;14.77;;;7.77;;
77146;SDS011;66121;52.584;9.694;2023-04-08T03:18:46;13.73;;;7.57;;
77146;SDS011;66121;52.584;9.694;2023-04-08T03:21:11;16.43;;;8.07;;
77146;SDS011;66121;52.584;9.694;2023-04-08T03:23:36;20.20;;;8.47;;
77146;SDS011;66121;52.584;9.694;2023-04-08T03:26:01;18.80;;;8.33;;
77146;SDS011;66121;52.584;9.694;2023-04-08T03:28:27;15.33;;;8.50;;
77146;SDS011;66121;52.584;9.694;2023-04-08T03:30:52;15.30;;;8.37;;
77146;SDS011;66121;52.584;9.694;2023-04-08T03:33:17;17.30;;;8.10;;
77146;SDS011;66121;52.584;9.694;2023-04-08T03:35:42;18.67;;;9.23;;
77146;SDS011;66121;52.584;9.694;2023-04-08T03:38:08;21.00;;;8.13;;
77146;SDS011;66121;52.584;9.694;2023-04-08T03:40:33;17.57;;;8.80;;
77146;SDS011;66121;52.584;9.694;2023-04-08T03:42:58;21.17;;;8.93;;
77146;SDS011;66121;52.584;9.694;2023-04-08T03:45:24;19.90;;;8.23;;
77146;SDS011;66121;52.584;9.694;2023-04-08T03:47:49;15.73;;;7.43;;
77146;SDS011;66121;52.584;9.694;2023-04-08T03:50:14;18.67;;;8.05;;
77146;SDS011;66121;52.584;9.694;2023-04-08T03:52:40;16.23;;;9.30;;
77146;SDS011;66121;52.584;9.694;2023-04-08T03:55:05;22.42;;;9.65;;
77146;SDS011;66121;52.584;9.694;2023-04-08T03:57:30;20.42;;;9.32;;
77146;SDS011;66121;52.584;9.694;2023-04-08T03:59:56;19.50;;;8.50;;
77146;SDS011;66121;52.584;9.694;2023-04-08T04:02:21;16.65;;;8.18;;
77146;SDS011;66121;52.584;9.694;2023-04-08T04:04:47;18.60;;;8.57;;
77146;SDS011;66121;52.584;9.694;2023-04-08T04:07:12;19.73;;;9.57;;
77146;SDS011;66121;52.584;9.694;2023-04-08T04:09:37;21.17;;;10.23;;
77146;SDS011;66121;52.584;9.694;2023-04-08T04:12:03;22.00;;;9.73;;
77146;SDS011;66121;52.584;9.694;2023-04-08T04:14:28;17.05;;;9.30;;
77146;SDS011;66121;52.584;9.694;2023-04-08T04:16:53;18.13;;;8.73;;
77146;SDS011;66121;52.584;9.694;2023-04-08T04:19:18;20.47;;;10.27;;
77146;SDS011;66121;52.584;9.694;2023-04-08T04:21:44;17.30;;;8.88;;
77146;SDS011;66121;52.584;9.694;2023-04-08T04:24:10;22.48;;;9.50;;
77146;SDS011;66121;52.584;9.694;2023-04-08T04:26:35;21.20;;;9.80;;
77146;SDS011;66121;52.584;9.694;2023-04-08T04:29:00;21.77;;;10.83;;
77146;SDS011;66121;52.584;9.694;2023-04-08T04:31:25;22.43;;;9.23;;
77146;SDS011;66121;52.584;9.694;2023-04-08T04:33:51;23.38;;;9.13;;
77146;SDS011;66121;52.584;9.694;2023-04-08T04:36:16;20.20;;;9.83;;
77146;SDS011;66121;52.584;9.694;2023-04-08T04:38:42;26.10;;;9.48;;
77146;SDS011;66121;52.584;9.694;2023-04-08T04:41:08;19.00;;;9.90;;
77146;SDS011;66121;52.584;9.694;2023-04-08T04:43:33;20.25;;;9.73;;
77146;SDS011;66121;52.584;9.694;2023-04-08T04:45:59;19.90;;;9.18;;
77146;SDS011;66121;52.584;9.694;2023-04-08T04:48:24;22.60;;;10.38;;
77146;SDS011;66121;52.584;9.694;2023-04-08T04:50:53;21.58;;;9.63;;
77146;SDS011;66121;52.584;9.694;2023-04-08T04:53:22;20.50;;;9.32;;
77146;SDS011;66121;52.584;9.694;2023-04-08T04:55:47;22.57;;;10.00;;
77146;SDS011;66121;52.584;9.694;2023-04-08T04:58:12;21.17;;;10.70;;
77146;SDS011;66121;52.584;9.694;2023-04-08T05:00:38;22.23;;;9.83;;
77146;SDS011;66121;52.584;9.694;2023-04-08T05:03:03;25.77;;;10.10;;
77146;SDS011;66121;52.584;9.694;2023-04-08T05:05:28;24.07;;;10.73;;
77146;SDS011;66121;52.584;9.694;2023-04-08T05:07:53;22.47;;;10.63;;
77146;SDS011;66121;52.584;9.694;2023-04-08T05:10:19;25.13;;;11.30;;
77146;SDS011;66121;52.584;9.694;2023-04-08T05:12:45;25.67;;;10.68;;
77146;SDS011;66121;52.584;9.694;2023-04-08T05:15:10;24.67;;;10.90;;
77146;SDS011;66121;52.584;9.694;2023-04-08T05:17:35;28.43;;;11.00;;
77146;SDS011;66121;52.584;9.694;2023-04-08T05:20:01;22.37;;;10.93;;
77146;SDS011;66121;52.584;9.694;2023-04-08T05:22:26;29.27;;;11.98;;
77146;SDS011;66121;52.584;9.694;2023-04-08T05:24:51;24.60;;;11.47;;
77146;SDS011;66121;52.584;9.694;2023-04-08T05:27:17;22.53;;;10.53;;
77146;SDS011;66121;52.584;9.694;2023-04-08T05:29:42;29.17;;;11.07;;
77146;SDS011;66121;52.584;9.694;2023-04-08T05:32:07;22.50;;;10.53;;
77146;SDS011;66121;52.584;9.694;2023-04-08T05:34:33;24.63;;;10.85;;
77146;SDS011;66121;52.584;9.694;2023-04-08T05:36:58;26.73;;;11.40;;
77146;SDS011;66121;52.584;9.694;2023-04-08T05:39:23;23.85;;;10.95;;
77146;SDS011;66121;52.584;9.694;2023-04-08T05:41:49;24.33;;;10.35;;
77146;SDS011;66121;52.584;9.694;2023-04-08T05:44:14;25.03;;;11.07;;
77146;SDS011;66121;52.584;9.694;2023-04-08T05:46:39;23.27;;;11.85;;
77146;SDS011;66121;52.584;9.694;2023-04-08T05:49:05;26.57;;;11.57;;
77146;SDS011;66121;52.584;9.694;2023-04-08T05:51:30;25.37;;;11.33;;
77146;SDS011;66121;52.584;9.694;2023-04-08T05:53:55;24.80;;;10.05;;
77146;SDS011;66121;52.584;9.694;2023-04-08T05:56:21;22.70;;;12.45;;
77146;SDS011;66121;52.584;9.694;2023-04-08T05:58:46;25.43;;;11.73;;
77146;SDS011;66121;52.584;9.694;2023-04-08T06:01:11;22.05;;;11.05;;
77146;SDS011;66121;52.584;9.694;2023-04-08T06:03:37;23.55;;;11.43;;
77146;SDS011;66121;52.584;9.694;2023-04-08T06:06:08;22.90;;;12.07;;
77146;SDS011;66121;52.584;9.694;2023-04-08T06:11:01;23.00;;;9.63;;
77146;SDS011;66121;52.584;9.694;2023-04-08T06:13:28;23.60;;;10.38;;
77146;SDS011;66121;52.584;9.694;2023-04-08T06:15:53;20.98;;;10.00;;
77146;SDS011;66121;52.584;9.694;2023-04-08T06:18:18;19.73;;;10.07;;
77146;SDS011;66121;52.584;9.694;2023-04-08T06:20:43;22.90;;;10.90;;
77146;SDS011;66121;52.584;9.694;2023-04-08T06:23:09;23.83;;;11.00;;
77146;SDS011;66121;52.584;9.694;2023-04-08T06:25:35;24.53;;;11.27;;
77146;SDS011;66121;52.584;9.694;2023-04-08T06:28:00;24.92;;;11.40;;
77146;SDS011;66121;52.584;9.694;2023-04-08T06:30:25;24.98;;;10.38;;
77146;SDS011;66121;52.584;9.694;2023-04-08T06:32:51;24.60;;;10.87;;
77146;SDS011;66121;52.584;9.694;2023-04-08T06:35:16;24.67;;;10.87;;
77146;SDS011;66121;52.584;9.694;2023-04-08T06:37:42;25.00;;;11.77;;
77146;SDS011;66121;52.584;9.694;2023-04-08T06:40:07;24.00;;;11.80;;
77146;SDS011;66121;52.584;9.694;2023-04-08T06:42:33;27.60;;;11.82;;
77146;SDS011;66121;52.584;9.694;2023-04-08T06:44:58;22.17;;;10.80;;
77146;SDS011;66121;52.584;9.694;2023-04-08T06:47:23;25.50;;;12.15;;
77146;SDS011;66121;52.584;9.694;2023-04-08T06:49:49;27.80;;;12.10;;
77146;SDS011;66121;52.584;9.694;2023-04-08T06:52:14;26.60;;;11.27;;
77146;SDS011;66121;52.584;9.694;2023-04-08T06:54:40;25.35;;;11.98;;
77146;SDS011;66121;52.584;9.694;2023-04-08T06:57:06;24.10;;;11.68;;
77146;SDS011;66121;52.584;9.694;2023-04-08T06:59:31;23.10;;;11.53;;
77146;SDS011;66121;52.584;9.694;2023-04-08T07:01:57;23.95;;;11.85;;
77146;SDS011;66121;52.584;9.694;2023-04-08T07:04:22;24.33;;;11.00;;
77146;SDS011;66121;52.584;9.694;2023-04-08T07:06:47;29.00;;;12.45;;
77146;SDS011;66121;52.584;9.694;2023-04-08T07:09:13;23.10;;;11.10;;
77146;SDS011;66121;52.584;9.694;2023-04-08T07:11:38;25.63;;;12.18;;
77146;SDS011;66121;52.584;9.694;2023-04-08T07:14:03;25.93;;;12.57;;
77146;SDS011;66121;52.584;9.694;2023-04-08T07:16:29;22.20;;;11.00;;
77146;SDS011;66121;52.584;9.694;2023-04-08T07:18:54;23.25;;;10.95;;
77146;SDS011;66121;52.584;9.694;2023-04-08T07:21:20;26.95;;;12.32;;
77146;SDS011;66121;52.584;9.694;2023-04-08T07:23:46;25.85;;;11.32;;
77146;SDS011;66121;52.584;9.694;2023-04-08T07:26:11;30.40;;;12.35;;
77146;SDS011;66121;52.584;9.694;2023-04-08T07:28:37;25.38;;;12.48;;
77146;SDS011;66121;52.584;9.694;2023-04-08T07:31:09;24.67;;;11.97;;
77146;SDS011;66121;52.584;9.694;2023-04-08T07:33:35;22.92;;;10.60;;
77146;SDS011;66121;52.584;9.694;2023-04-08T07:36:00;26.77;;;11.90;;
77146;SDS011;66121;52.584;9.694;2023-04-08T07:38:26;28.27;;;11.82;;
77146;SDS011;66121;52.584;9.694;2023-04-08T07:40:51;24.52;;;11.73;;
77146;SDS011;66121;52.584;9.694;2023-04-08T07:43:17;25.30;;;11.03;;
77146;SDS011;66121;52.584;9.694;2023-04-08T07:45:42;22.95;;;11.07;;
77146;SDS011;66121;52.584;9.694;2023-04-08T07:48:07;26.88;;;12.30;;
77146;SDS011;66121;52.584;9.694;2023-04-08T07:50:34;27.33;;;12.67;;
77146;SDS011;66121;52.584;9.694;2023-04-08T07:53:01;25.40;;;11.82;;
77146;SDS011;66121;52.584;9.694;2023-04-08T07:55:26;27.83;;;13.10;;
77146;SDS011;66121;52.584;9.694;2023-04-08T07:57:51;24.27;;;11.77;;
77146;SDS011;66121;52.584;9.694;2023-04-08T08:00:17;24.60;;;11.53;;
77146;SDS011;66121;52.584;9.694;2023-04-08T08:02:45;23.13;;;10.98;;
77146;SDS011;66121;52.584;9.694;2023-04-08T08:05:11;28.38;;;12.73;;
77146;SDS011;66121;52.584;9.694;2023-04-08T08:07:37;22.85;;;11.23;;
77146;SDS011;66121;52.584;9.694;2023-04-08T08:10:02;25.80;;;12.93;;
77146;SDS011;66121;52.584;9.694;2023-04-08T08:12:28;24.10;;;12.48;;
77146;SDS011;66121;52.584;9.694;2023-04-08T08:14:53;23.55;;;12.10;;
77146;SDS011;66121;52.584;9.694;2023-04-08T08:17:22;23.48;;;11.13;;
77146;SDS011;66121;52.584;9.694;2023-04-08T08:19:48;21.70;;;11.55;;
77146;SDS011;66121;52.584;9.694;2023-04-08T08:22:14;25.20;;;10.93;;
77146;SDS011;66121;52.584;9.694;2023-04-08T08:24:40;19.80;;;10.55;;
77146;SDS011;66121;52.584;9.694;2023-04-08T08:27:05;24.77;;;11.60;;
77146;SDS011;66121;52.584;9.694;2023-04-08T08:29:33;22.48;;;10.93;;
77146;SDS011;66121;52.584;9.694;2023-04-08T08:32:01;24.33;;;11.98;;
77146;SDS011;66121;52.584;9.694;2023-04-08T08:34:27;25.95;;;12.07;;
77146;SDS011;66121;52.584;9.694;2023-04-08T08:36:53;24.90;;;11.65;;
77146;SDS011;66121;52.584;9.694;2023-04-08T08:39:18;23.67;;;11.23;;
77146;SDS011;66121;52.584;9.694;2023-04-08T08:41:43;20.13;;;11.33;;
77146;SDS011;66121;52.584;9.694;2023-04-08T08:44:10;23.08;;;12.20;;
77146;SDS011;66121;52.584;9.694;2023-04-08T08:46:36;21.58;;;12.10;;
77146;SDS011;66121;52.584;9.694;2023-04-08T08:49:08;22.95;;;11.43;;
77146;SDS011;66121;52.584;9.694;2023-04-08T08:51:33;22.52;;;11.93;;
77146;SDS011;66121;52.584;9.694;2023-04-08T08:54:02;20.23;;;10.48;;
77146;SDS011;66121;52.584;9.694;2023-04-08T08:56:28;22.15;;;11.48;;
77146;SDS011;66121;52.584;9.694;2023-04-08T08:58:54;21.25;;;10.82;;
77146;SDS011;66121;52.584;9.694;2023-04-08T09:01:31;19.95;;;10.10;;
77146;SDS011;66121;52.584;9.694;2023-04-08T09:04:11;22.90;;;10.68;;
77146;SDS011;66121;52.584;9.694;2023-04-08T09:06:40;20.80;;;10.68;;
77146;SDS011;66121;52.584;9.694;2023-04-08T09:09:06;19.27;;;10.45;;
77146;SDS011;66121;52.584;9.694;2023-04-08T09:11:34;20.45;;;10.55;;
77146;SDS011;66121;52.584;9.694;2023-04-08T09:14:04;23.90;;;11.45;;
77146;SDS011;66121;52.584;9.694;2023-04-08T09:16:31;24.25;;;11.38;;
77146;SDS011;66121;52.584;9.694;2023-04-08T09:19:06;20.35;;;9.88;;
77146;SDS011;66121;52.584;9.694;2023-04-08T09:21:34;21.17;;;9.60;;
77146;SDS011;66121;52.584;9.694;2023-04-08T09:23:59;19.02;;;10.15;;
77146;SDS011;66121;52.584;9.694;2023-04-08T09:26:25;16.98;;;9.45;;
77146;SDS011;66121;52.584;9.694;2023-04-08T09:29:07;18.38;;;9.85;;
77146;SDS011;66121;52.584;9.694;2023-04-08T09:31:37;20.40;;;9.60;;
77146;SDS011;66121;52.584;9.694;2023-04-08T09:34:12;21.52;;;10.38;;
77146;SDS011;66121;52.584;9.694;2023-04-08T09:36:44;19.83;;;9.88;;
77146;SDS011;66121;52.584;9.694;2023-04-08T09:39:10;25.60;;;11.20;;
77146;SDS011;66121;52.584;9.694;2023-04-08T09:41:36;19.40;;;10.23;;
77146;SDS011;66121;52.584;9.694;2023-04-08T09:44:04;17.23;;;9.82;;
77146;SDS011;66121;52.584;9.694;2023-04-08T09:46:32;18.35;;;10.05;;
77146;SDS011;66121;52.584;9.694;2023-04-08T09:49:04;16.27;;;9.35;;
77146;SDS011;66121;52.584;9.694;2023-04-08T09:51:32;19.52;;;9.98;;
77146;SDS011;66121;52.584;9.694;2023-04-08T09:54:05;18.55;;;9.82;;
77146;SDS011;66121;52.584;9.694;2023-04-08T09:56:42;18.42;;;8.40;;
77146;SDS011;66121;52.584;9.694;2023-04-08T09:59:21;19.60;;;9.68;;
77146;SDS011;66121;52.584;9.694;2023-04-08T10:01:54;19.23;;;9.63;;
77146;SDS011;66121;52.584;9.694;2023-04-08T10:04:24;21.90;;;10.65;;
77146;SDS011;66121;52.584;9.694;2023-04-08T10:06:59;20.67;;;9.10;;
77146;SDS011;66121;52.584;9.694;2023-04-08T10:09:28;30.10;;;10.65;;
77146;SDS011;66121;52.584;9.694;2023-04-08T10:11:55;18.95;;;10.43;;
77146;SDS011;66121;52.584;9.694;2023-04-08T10:14:20;18.52;;;10.35;;
77146;SDS011;66121;52.584;9.694;2023-04-08T10:16:46;20.08;;;11.10;;
77146;SDS011;66121;52.584;9.694;2023-04-08T10:27:49;19.80;;;9.27;;
77146;SDS011;66121;52.584;9.694;2023-04-08T10:32:55;21.23;;;10.65;;
77146;SDS011;66121;52.584;9.694;2023-04-08T10:35:28;19.27;;;10.10;;
77146;SDS011;66121;52.584;9.694;2023-04-08T10:37:54;22.02;;;10.90;;
77146;SDS011;66121;52.584;9.694;2023-04-08T10:40:20;22.60;;;10.95;;
77146;SDS011;66121;52.584;9.694;2023-04-08T10:42:45;18.73;;;10.52;;
77146;SDS011;66121;52.584;9.694;2023-04-08T10:45:15;21.58;;;10.07;;
77146;SDS011;66121;52.584;9.694;2023-04-08T10:47:41;20.23;;;10.88;;
77146;SDS011;66121;52.584;9.694;2023-04-08T10:50:14;21.88;;;10.57;;
77146;SDS011;66121;52.584;9.694;2023-04-08T10:55:21;18.55;;;10.23;;
77146;SDS011;66121;52.584;9.694;2023-04-08T10:57:48;16.92;;;10.45;;
77146;SDS011;66121;52.584;9.694;2023-04-08T11:00:17;21.67;;;10.90;;
77146;SDS011;66121;52.584;9.694;2023-04-08T11:02:44;19.77;;;10.63;;
77146;SDS011;66121;52.584;9.694;2023-04-08T11:05:09;20.95;;;11.02;;
77146;SDS011;66121;52.584;9.694;2023-04-08T11:07:39;17.40;;;10.55;;
77146;SDS011;66121;52.584;9.694;2023-04-08T11:10:05;18.85;;;10.18;;
77146;SDS011;66121;52.584;9.694;2023-04-08T11:12:31;21.30;;;10.27;;
77146;SDS011;66121;52.584;9.694;2023-04-08T11:14:57;19.13;;;10.43;;
77146;SDS011;66121;52.584;9.694;2023-04-08T11:17:23;16.85;;;9.77;;
77146;SDS011;66121;52.584;9.694;2023-04-08T11:19:48;18.02;;;9.73;;
77146;SDS011;66121;52.584;9.694;2023-04-08T11:22:14;19.80;;;9.93;;
77146;SDS011;66121;52.584;9.694;2023-04-08T11:24:40;18.73;;;9.70;;
77146;SDS011;66121;52.584;9.694;2023-04-08T11:27:06;20.75;;;9.63;;
77146;SDS011;66121;52.584;9.694;2023-04-08T11:29:31;19.73;;;11.15;;
77146;SDS011;66121;52.584;9.694;2023-04-08T11:31:57;20.13;;;10.38;;
77146;SDS011;66121;52.584;9.694;2023-04-08T11:34:23;17.35;;;9.73;;
77146;SDS011;66121;52.584;9.694;2023-04-08T11:36:49;20.52;;;10.23;;
77146;SDS011;66121;52.584;9.694;2023-04-08T11:39:15;18.25;;;9.88;;
77146;SDS011;66121;52.584;9.694;2023-04-08T11:41:41;21.17;;;9.88;;
77146;SDS011;66121;52.584;9.694;2023-04-08T11:44:06;19.70;;;9.43;;
77146;SDS011;66121;52.584;9.694;2023-04-08T11:46:32;22.30;;;11.45;;
77146;SDS011;66121;52.584;9.694;2023-04-08T11:49:03;20.83;;;10.18;;
77146;SDS011;66121;52.584;9.694;2023-04-08T11:51:30;23.10;;;10.90;;
77146;SDS011;66121;52.584;9.694;2023-04-08T11:53:56;22.73;;;11.35;;
77146;SDS011;66121;52.584;9.694;2023-04-08T11:56:22;23.02;;;11.55;;
77146;SDS011;66121;52.584;9.694;2023-04-08T11:58:48;23.88;;;11.02;;
77146;SDS011;66121;52.584;9.694;2023-04-08T12:01:14;23.20;;;10.63;;
77146;SDS011;66121;52.584;9.694;2023-04-08T12:04:01;20.25;;;10.02;;
77146;SDS011;66121;52.584;9.694;2023-04-08T12:06:26;22.52;;;10.75;;
77146;SDS011;66121;52.584;9.694;2023-04-08T12:08:53;25.27;;;11.30;;
77146;SDS011;66121;52.584;9.694;2023-04-08T12:11:20;23.83;;;12.23;;
77146;SDS011;66121;52.584;9.694;2023-04-08T12:13:45;21.02;;;10.35;;
77146;SDS011;66121;52.584;9.694;2023-04-08T12:16:11;23.90;;;12.13;;
77146;SDS011;66121;52.584;9.694;2023-04-08T12:18:36;21.73;;;10.88;;
77146;SDS011;66121;52.584;9.694;2023-04-08T12:21:02;25.58;;;11.38;;
77146;SDS011;66121;52.584;9.694;2023-04-08T12:23:27;20.58;;;11.18;;
77146;SDS011;66121;52.584;9.694;2023-04-08T12:25:52;21.30;;;10.60;;
77146;SDS011;66121;52.584;9.694;2023-04-08T12:28:18;20.83;;;10.73;;
77146;SDS011;66121;52.584;9.694;2023-04-08T12:30:43;21.90;;;11.63;;
77146;SDS011;66121;52.584;9.694;2023-04-08T12:33:08;24.87;;;12.87;;
77146;SDS011;66121;52.584;9.694;2023-04-08T12:35:33;19.53;;;10.50;;
77146;SDS011;66121;52.584;9.694;2023-04-08T12:37:59;22.58;;;11.25;;
77146;SDS011;66121;52.584;9.694;2023-04-08T12:40:25;21.10;;;10.52;;
77146;SDS011;66121;52.584;9.694;2023-04-08T12:42:50;23.38;;;10.90;;
77146;SDS011;66121;52.584;9.694;2023-04-08T12:45:16;22.25;;;11.40;;
77146;SDS011;66121;52.584;9.694;2023-04-08T12:47:41;20.93;;;10.63;;
77146;SDS011;66121;52.584;9.694;2023-04-08T12:50:06;26.13;;;12.57;;
77146;SDS011;66121;52.584;9.694;2023-04-08T12:52:33;20.63;;;10.82;;
77146;SDS011;66121;52.584;9.694;2023-04-08T12:54:59;22.17;;;11.00;;
77146;SDS011;66121;52.584;9.694;2023-04-08T12:57:25;24.58;;;11.90;;
77146;SDS011;66121;52.584;9.694;2023-04-08T12:59:51;19.65;;;9.75;;
77146;SDS011;66121;52.584;9.694;2023-04-08T13:02:16;21.70;;;11.00;;
77146;SDS011;66121;52.584;9.694;2023-04-08T13:04:41;21.13;;;10.87;;
77146;SDS011;66121;52.584;9.694;2023-04-08T13:07:07;21.73;;;11.48;;
77146;SDS011;66121;52.584;9.694;2023-04-08T13:09:32;20.60;;;10.27;;
77146;SDS011;66121;52.584;9.694;2023-04-08T13:11:57;23.17;;;11.85;;
77146;SDS011;66121;52.584;9.694;2023-04-08T13:14:23;24.48;;;11.18;;
77146;SDS011;66121;52.584;9.694;2023-04-08T13:16:49;26.13;;;12.27;;
77146;SDS011;66121;52.584;9.694;2023-04-08T13:19:14;19.42;;;9.70;;
77146;SDS011;66121;52.584;9.694;2023-04-08T13:21:39;24.40;;;11.23;;
77146;SDS011;66121;52.584;9.694;2023-04-08T13:24:05;23.17;;;10.77;;
77146;SDS011;66121;52.584;9.694;2023-04-08T13:26:31;21.00;;;11.20;;
77146;SDS011;66121;52.584;9.694;2023-04-08T13:28:56;22.27;;;10.88;;
77146;SDS011;66121;52.584;9.694;2023-04-08T13:31:21;23.20;;;11.67;;
77146;SDS011;66121;52.584;9.694;2023-04-08T13:33:47;21.55;;;10.48;;
77146;SDS011;66121;52.584;9.694;2023-04-08T13:36:12;22.70;;;11.70;;
77146;SDS011;66121;52.584;9.694;2023-04-08T13:38:37;22.93;;;11.90;;
77146;SDS011;66121;52.584;9.694;2023-04-08T13:41:03;19.67;;;11.23;;
77146;SDS011;66121;52.584;9.694;2023-04-08T13:43:28;22.55;;;11.23;;
77146;SDS011;66121;52.584;9.694;2023-04-08T13:45:53;22.88;;;11.18;;
77146;SDS011;66121;52.584;9.694;2023-04-08T13:48:19;22.90;;;10.10;;
77146;SDS011;66121;52.584;9.694;2023-04-08T13:50:44;22.17;;;10.57;;
77146;SDS011;66121;52.584;9.694;2023-04-08T13:53:10;19.52;;;10.13;;
77146;SDS011;66121;52.584;9.694;2023-04-08T13:55:36;20.23;;;10.18;;
77146;SDS011;66121;52.584;9.694;2023-04-08T13:58:01;22.50;;;11.40;;
77146;SDS011;66121;52.584;9.694;2023-04-08T14:00:27;20.50;;;10.10;;
77146;SDS011;66121;52.584;9.694;2023-04-08T14:02:52;19.67;;;11.60;;
77146;SDS011;66121;52.584;9.694;2023-04-08T14:05:18;19.30;;;9.73;;
77146;SDS011;66121;52.584;9.694;2023-04-08T14:07:43;19.30;;;9.82;;
77146;SDS011;66121;52.584;9.694;2023-04-08T14:10:08;21.50;;;10.75;;
77146;SDS011;66121;52.584;9.694;2023-04-08T14:12:34;24.70;;;11.52;;
77146;SDS011;66121;52.584;9.694;2023-04-08T14:14:59;20.77;;;10.20;;
77146;SDS011;66121;52.584;9.694;2023-04-08T14:17:26;20.15;;;10.02;;
77146;SDS011;66121;52.584;9.694;2023-04-08T14:19:52;21.80;;;10.85;;
77146;SDS011;66121;52.584;9.694;2023-04-08T14:22:17;21.20;;;10.70;;
77146;SDS011;66121;52.584;9.694;2023-04-08T14:24:43;25.55;;;11.50;;
77146;SDS011;66121;52.584;9.694;2023-04-08T14:27:08;23.25;;;11.68;;
77146;SDS011;66121;52.584;9.694;2023-04-08T14:29:33;23.98;;;10.73;;
77146;SDS011;66121;52.584;9.694;2023-04-08T14:31:59;23.03;;;11.20;;
77146;SDS011;66121;52.584;9.694;2023-04-08T14:34:24;28.07;;;11.63;;
77146;SDS011;66121;52.584;9.694;2023-04-08T14:36:49;19.65;;;10.77;;
77146;SDS011;66121;52.584;9.694;2023-04-08T14:39:15;23.08;;;10.80;;
77146;SDS011;66121;52.584;9.694;2023-04-08T14:41:40;24.30;;;11.53;;
77146;SDS011;66121;52.584;9.694;2023-04-08T14:44:05;25.63;;;11.57;;
77146;SDS011;66121;52.584;9.694;2023-04-08T14:46:31;26.80;;;11.73;;